Time;durP1;ratioP1;P1;durP2;ratioP2;P2;SDS_P1;SDS_P2;PMS_P1;PMS_P2;Temp;Humidity;BMP_temperature;BMP_pressure;BME280_temperature;BME280_humidity;BME280_pressure;Samples;Min_cycle;Max_cycle;Signal;HPM_P1;HPM_P2
2022/01/27 00:49:38;;;;;;;28.30;20.60;;;;;;;0.33;100.00;99662.25;105014;1271;61234;-77
2022/01/27 00:52:09;;;;;;;26.10;18.60;;;;;;;0.34;100.00;99661.02;105088;1270;75605;-79
2022/01/27 00:54:36;;;;;;;32.50;23.00;;;;;;;0.34;100.00;99660.32;104651;1271;69293;-79
2022/01/27 00:57:10;;;;;;;30.70;23.10;;;;;;;0.33;100.00;99649.84;105208;1271;73195;-79
2022/01/27 00:59:50;;;;;;;27.00;19.40;;;;;;;0.33;100.00;99640.07;105111;1271;62961;-78
2022/01/27 01:32:06;;;;;;;32.60;22.00;;;;;;;0.33;100.00;99623.10;104846;1277;62195;-78
2022/01/27 01:34:33;;;;;;;26.70;19.30;;;;;;;0.33;100.00;99625.89;105268;1271;62069;-78
2022/01/27 01:37:04;;;;;;;28.40;19.90;;;;;;;0.34;100.00;99631.48;105291;1271;76135;-79
2022/01/27 01:39:34;;;;;;;28.80;20.30;;;;;;;0.34;100.00;99634.27;104958;1271;69576;-79
2022/01/27 01:42:06;;;;;;;30.70;22.50;;;;;;;0.35;100.00;99639.16;105107;1271;72906;-78
2022/01/27 01:44:35;;;;;;;27.10;20.50;;;;;;;0.36;100.00;99632.50;105199;1271;62015;-79
2022/01/27 01:47:05;;;;;;;29.30;20.40;;;;;;;0.34;100.00;99633.23;105053;1271;62088;-78
2022/01/27 01:49:32;;;;;;;29.50;20.50;;;;;;;0.35;100.00;99636.73;105201;1271;77175;-81
2022/01/27 01:52:07;;;;;;;29.20;19.60;;;;;;;0.35;100.00;99626.92;105232;1271;70473;-77
2022/01/27 01:54:34;;;;;;;31.40;21.30;;;;;;;0.35;100.00;99605.25;105218;1271;74186;-79
2022/01/27 01:57:02;;;;;;;31.40;22.90;;;;;;;0.35;100.00;99601.22;105220;1271;62072;-79
2022/01/27 01:59:29;;;;;;;35.70;22.20;;;;;;;0.34;100.00;99600.55;104909;1274;62150;-80
2022/01/27 02:01:58;;;;;;;32.30;22.10;;;;;;;0.33;100.00;99601.96;105196;1271;74388;-80
2022/01/27 02:04:25;;;;;;;35.70;22.70;;;;;;;0.31;100.00;99598.13;104790;1271;69143;-79
2022/01/27 02:06:57;;;;;;;31.30;22.40;;;;;;;0.30;100.00;99591.69;105172;1271;73467;-82
2022/01/27 02:09:34;;;;;;;32.30;21.50;;;;;;;0.30;100.00;99591.70;105207;1271;62330;-78
2022/01/27 02:17:59;;;;;;;32.30;21.50;;;;;;;0.26;100.00;99592.80;105167;1271;69309;-78
2022/01/27 02:20:31;;;;;;;30.20;21.40;;;;;;;0.25;100.00;99587.75;104950;1271;72612;-77
2022/01/27 02:22:58;;;;;;;27.20;19.40;;;;;;;0.25;100.00;99585.99;105136;1271;61986;-78
2022/01/27 02:25:25;;;;;;;29.60;21.30;;;;;;;0.24;100.00;99587.93;105022;1271;62101;-79
2022/01/27 02:27:56;;;;;;;30.00;19.80;;;;;;;0.24;100.00;99585.84;104977;1274;75404;-78
2022/01/27 02:30:27;;;;;;;27.20;19.90;;;;;;;0.22;100.00;99583.60;105205;1271;70376;-79
2022/01/27 02:32:54;;;;;;;25.70;18.70;;;;;;;0.20;100.00;99583.10;104784;1272;74372;-80
2022/01/27 02:35:24;;;;;;;26.20;18.90;;;;;;;0.18;100.00;99584.70;105229;1271;62264;-78
2022/01/27 02:37:53;;;;;;;25.80;19.10;;;;;;;0.18;100.00;99578.42;105052;1271;62082;-78
2022/01/27 02:40:27;;;;;;;24.50;18.70;;;;;;;0.17;100.00;99571.45;104947;1271;74435;-79
2022/01/27 02:42:54;;;;;;;26.20;18.90;;;;;;;0.17;100.00;99571.80;105163;1271;69133;-78
2022/01/27 02:45:45;;;;;;;28.60;19.30;;;;;;;0.15;100.00;99571.82;104923;1272;74531;-78
2022/01/27 02:48:12;;;;;;;25.70;18.20;;;;;;;0.15;100.00;99569.38;105236;1271;62119;-77
2022/01/27 02:50:40;;;;;;;27.30;20.70;;;;;;;0.15;100.00;99572.54;105288;1271;62209;-79
2022/01/27 02:53:08;;;;;;;28.60;19.90;;;;;;;0.14;100.00;99570.10;105317;1271;75658;-77
2022/01/27 02:55:35;;;;;;;23.60;18.30;;;;;;;0.14;100.00;99572.55;104567;1269;1002978;-78
2022/01/27 02:58:04;;;;;;;25.50;17.70;;;;;;;0.14;100.00;99572.02;105151;1271;74229;-78
2022/01/27 03:00:33;;;;;;;28.20;18.40;;;;;;;0.14;100.00;99570.64;105297;1271;62212;-78
2022/01/27 03:03:01;;;;;;;25.70;18.20;;;;;;;0.14;100.00;99566.27;105343;1269;62075;-78
2022/01/27 03:05:30;;;;;;;31.00;19.90;;;;;;;0.13;100.00;99558.77;105079;1271;74469;-80
2022/01/27 03:07:57;;;;;;;28.20;20.10;;;;;;;0.13;100.00;99556.84;105311;1271;70500;-77
2022/01/27 03:10:30;;;;;;;26.60;19.40;;;;;;;0.13;100.00;99558.77;105040;1271;74374;-80
2022/01/27 03:13:00;;;;;;;23.40;17.60;;;;;;;0.12;100.00;99559.46;104999;1271;61996;-79
2022/01/27 03:15:28;;;;;;;25.20;18.30;;;;;;;0.13;100.00;99559.98;105335;1271;62150;-79
2022/01/27 03:17:55;;;;;;;26.30;18.10;;;;;;;0.14;100.00;99559.10;105412;1271;77928;-80
2022/01/27 03:20:22;;;;;;;26.70;18.60;;;;;;;0.14;100.00;99557.17;105393;1271;69372;-79
2022/01/27 03:22:49;;;;;;;24.60;18.60;;;;;;;0.12;100.00;99557.89;105480;1270;73226;-79
2022/01/27 03:25:19;;;;;;;27.30;19.10;;;;;;;0.11;100.00;99555.46;105524;1271;62085;-82
2022/01/27 03:27:47;;;;;;;24.90;18.20;;;;;;;0.12;100.00;99552.84;105687;1270;62380;-79
2022/01/27 03:30:16;;;;;;;26.70;20.00;;;;;;;0.13;100.00;99553.16;105949;1270;76953;-79
2022/01/27 03:32:44;;;;;;;25.90;18.60;;;;;;;0.12;100.00;99548.11;105780;1271;69105;-78
2022/01/27 03:35:11;;;;;;;28.00;19.40;;;;;;;0.11;100.00;99540.63;107215;1269;74244;-79
2022/01/27 03:37:38;;;;;;;29.50;20.10;;;;;;;0.11;100.00;99540.45;107710;1271;61934;-79
2022/01/27 03:40:25;;;;;;;29.80;20.30;;;;;;;0.10;100.00;99537.14;107552;1270;62057;-78
2022/01/27 03:43:03;;;;;;;28.90;19.50;;;;;;;0.11;100.00;99531.36;107484;1277;75888;-78
2022/01/27 03:45:29;;;;;;;27.40;19.10;;;;;;;0.12;100.00;99529.25;104814;1276;69240;-78
2022/01/27 03:47:57;;;;;;;23.80;16.50;;;;;;;0.11;100.00;99534.16;104866;1276;74430;-78
2022/01/27 03:50:23;;;;;;;29.00;21.20;;;;;;;0.10;100.00;99534.50;104890;1277;62543;-78
2022/01/27 03:52:51;;;;;;;30.40;19.70;;;;;;;0.09;100.00;99535.05;104963;1277;62075;-79
2022/01/27 03:55:18;;;;;;;28.80;18.50;;;;;;;0.08;100.00;99536.64;104822;1277;75891;-77
2022/01/27 03:57:47;;;;;;;27.00;19.70;;;;;;;0.07;100.00;99537.19;104837;1277;69643;-78
2022/01/27 04:00:16;;;;;;;27.80;19.70;;;;;;;0.06;100.00;99536.33;104839;1276;74495;-78
2022/01/27 04:05:45;;;;;;;28.00;20.70;;;;;;;0.05;100.00;99532.33;104119;1282;62317;-77
2022/01/27 04:08:14;;;;;;;28.80;21.60;;;;;;;0.05;100.00;99534.76;104140;1282;76002;-78
2022/01/27 04:10:42;;;;;;;26.50;20.10;;;;;;;0.05;100.00;99527.96;103892;1284;70617;-76
2022/01/27 04:13:09;;;;;;;30.10;21.90;;;;;;;0.05;100.00;99526.02;104137;1282;73262;-77
2022/01/27 04:15:39;;;;;;;27.00;20.10;;;;;;;0.06;100.00;99520.61;104096;1282;62199;-78
2022/01/27 04:18:06;;;;;;;28.90;19.90;;;;;;;0.08;100.00;99518.83;104225;1282;62367;-77
2022/01/27 04:20:33;;;;;;;27.90;20.20;;;;;;;0.07;100.00;99517.77;103996;1284;75429;-79
2022/01/27 04:22:59;;;;;;;25.70;19.40;;;;;;;0.07;100.00;99515.36;104103;1282;68116;-77
2022/01/27 04:25:26;;;;;;;30.10;19.00;;;;;;;0.06;100.00;99511.00;104098;1282;73216;-77
2022/01/27 04:27:57;;;;;;;31.80;21.20;;;;;;;0.06;100.00;99511.70;104134;1282;62188;-77
2022/01/27 04:30:25;;;;;;;31.90;22.40;;;;;;;0.07;100.00;99509.60;104130;1282;62082;-78
2022/01/27 04:32:59;;;;;;;30.70;20.90;;;;;;;0.05;100.00;99513.10;104114;1282;76022;-78
2022/01/27 04:35:30;;;;;;;28.00;20.40;;;;;;;0.04;100.00;99515.21;104577;1277;70518;-78
2022/01/27 04:38:07;;;;;;;29.50;21.60;;;;;;;0.03;100.00;99509.82;104604;1277;74550;-78
2022/01/27 04:43:12;;;;;;;30.20;21.70;;;;;;;0.01;100.00;99498.15;104769;1271;62166;-79
2022/01/27 04:46:05;;;;;;;30.00;21.00;;;;;;;0.01;100.00;99492.73;105249;1271;77061;-80
2022/01/27 04:48:40;;;;;;;33.70;21.90;;;;;;;0.01;100.00;99491.34;105263;1271;68875;-78
2022/01/27 04:51:10;;;;;;;32.90;21.70;;;;;;;0.02;100.00;99490.79;105280;1271;73564;-78
2022/01/27 04:53:47;;;;;;;31.30;20.60;;;;;;;0.04;100.00;99491.48;105322;1271;62410;-78
2022/01/27 04:56:16;;;;;;;32.20;21.60;;;;;;;0.04;100.00;99491.83;104955;1271;62969;-77
2022/01/27 04:58:46;;;;;;;29.30;20.90;;;;;;;0.04;100.00;99489.36;105462;1271;76035;-78
2022/01/27 05:01:15;;;;;;;32.00;22.30;;;;;;;0.05;100.00;99487.42;105246;1271;69272;-79
2022/01/27 05:03:54;;;;;;;31.00;22.00;;;;;;;0.06;100.00;99483.40;105247;1271;73258;-78
2022/01/27 05:06:20;;;;;;;33.30;21.00;;;;;;;0.07;100.00;99481.62;105210;1271;62087;-78
2022/01/27 05:08:47;;;;;;;29.70;21.40;;;;;;;0.09;100.00;99483.19;105215;1271;62069;-78
2022/01/27 05:11:22;;;;;;;31.10;21.40;;;;;;;0.11;100.00;99482.80;105264;1271;77450;-78
2022/01/27 05:13:55;;;;;;;30.70;21.50;;;;;;;0.12;100.00;99478.75;105232;1271;68630;-79
2022/01/27 05:16:22;;;;;;;31.80;21.00;;;;;;;0.13;100.00;99483.98;105233;1271;73292;-77
2022/01/27 05:18:48;;;;;;;31.30;20.20;;;;;;;0.14;100.00;99494.80;105219;1271;62074;-79
2022/01/27 05:21:15;;;;;;;30.20;21.10;;;;;;;0.15;100.00;99490.76;105002;1269;62146;-80
2022/01/27 05:23:43;;;;;;;30.20;20.60;;;;;;;0.15;100.00;99485.51;105246;1270;77020;-78
2022/01/27 05:26:13;;;;;;;31.00;21.50;;;;;;;0.17;100.00;99476.56;104987;1271;70149;-79
2022/01/27 05:28:40;;;;;;;34.60;22.00;;;;;;;0.19;100.00;99471.65;105251;1271;73223;-79
2022/01/27 05:31:07;;;;;;;29.70;21.30;;;;;;;0.21;100.00;99468.81;105259;1271;62151;-79
2022/01/27 05:33:37;;;;;;;31.90;22.10;;;;;;;0.23;100.00;99466.52;105251;1271;61976;-78
2022/01/27 05:36:04;;;;;;;29.10;20.50;;;;;;;0.23;100.00;99454.45;105007;1271;78189;-79
2022/01/27 05:38:31;;;;;;;29.10;21.00;;;;;;;0.25;100.00;99443.95;105221;1270;69683;-76
2022/01/27 05:40:58;;;;;;;30.70;20.40;;;;;;;0.25;100.00;99437.48;104977;1271;73355;-78
2022/01/27 05:43:25;;;;;;;30.00;20.00;;;;;;;0.25;100.00;99436.06;105193;1271;62111;-77
2022/01/27 05:45:52;;;;;;;33.40;21.60;;;;;;;0.25;100.00;99429.08;105231;1271;62091;-78
2022/01/27 05:48:18;;;;;;;31.40;21.70;;;;;;;0.26;100.00;99428.20;105220;1271;74390;-79
2022/01/27 05:50:47;;;;;;;36.70;22.20;;;;;;;0.26;100.00;99425.73;105410;1270;69377;-79
2022/01/27 05:53:15;;;;;;;32.10;20.40;;;;;;;0.28;100.00;99423.63;105358;1271;73398;-78
2022/01/27 05:55:44;;;;;;;37.00;23.90;;;;;;;0.27;100.00;99429.74;105244;1271;62177;-79
2022/01/27 05:58:11;;;;;;;31.10;20.10;;;;;;;0.27;100.00;99428.88;105264;1269;62184;-78
2022/01/27 06:00:40;;;;;;;31.00;21.40;;;;;;;0.28;100.00;99434.61;105252;1271;76752;-78
2022/01/27 06:03:07;;;;;;;;;;;;;;;0.29;100.00;99430.41;105033;1271;68373;-78
2022/01/27 06:05:34;;;;;;;29.40;18.60;;;;;;;0.30;100.00;99425.85;105239;1271;62156;-78
2022/01/27 06:08:01;;;;;;;34.30;20.70;;;;;;;0.30;100.00;99420.26;105255;1270;62110;-77
2022/01/27 06:10:29;;;;;;;30.20;19.40;;;;;;;0.32;100.00;99407.64;105282;1270;62185;-78
2022/01/27 06:12:58;;;;;;;33.40;21.80;;;;;;;0.33;100.00;99403.77;105262;1271;77242;-78
2022/01/27 06:15:26;;;;;;;29.40;19.00;;;;;;;0.34;100.00;99396.75;105235;1271;69557;-78
2022/01/27 06:17:55;;;;;;;32.80;22.20;;;;;;;0.34;100.00;99399.91;105401;1269;74441;-78
2022/01/27 06:20:22;;;;;;;30.30;20.00;;;;;;;0.35;100.00;99396.41;105430;1271;62187;-78
2022/01/27 06:22:57;;;;;;;28.80;19.80;;;;;;;0.35;100.00;99399.17;105004;1271;62363;-79
2022/01/27 06:25:30;;;;;;;28.50;19.50;;;;;;;0.35;100.00;99404.24;104980;1271;77121;-78
2022/01/27 06:27:58;;;;;;;26.40;18.50;;;;;;;0.37;100.00;99387.43;105263;1271;70271;-79
2022/01/27 06:30:27;;;;;;;28.70;18.40;;;;;;;0.38;100.00;99391.95;104983;1271;74300;-76
2022/01/27 06:33:07;;;;;;;26.20;18.50;;;;;;;0.40;100.00;99409.77;104953;1271;62113;-78
2022/01/27 06:35:38;;;;;;;24.90;17.80;;;;;;;0.42;100.00;99408.85;105011;1271;62063;-77
2022/01/27 06:38:05;;;;;;;25.10;17.00;;;;;;;0.43;100.00;99395.70;105302;1270;75877;-78
2022/01/27 06:40:32;;;;;;;26.50;19.00;;;;;;;0.44;100.00;99378.91;105296;1271;70593;-78
2022/01/27 06:43:01;;;;;;;27.10;16.80;;;;;;;0.46;100.00;99375.73;105021;1271;73494;-79
2022/01/27 06:45:28;;;;;;;27.10;17.90;;;;;;;0.48;100.00;99381.65;105255;1271;62210;-79
2022/01/27 06:47:56;;;;;;;25.30;16.20;;;;;;;0.49;100.00;99371.83;104973;1271;62190;-79
2022/01/27 06:50:22;;;;;;;23.20;16.40;;;;;;;0.51;100.00;99370.91;105238;1270;77339;-79
2022/01/27 06:52:52;;;;;;;23.20;16.10;;;;;;;0.53;100.00;99373.48;105258;1271;69248;-79
2022/01/27 06:55:22;;;;;;;23.30;15.10;;;;;;;0.53;100.00;99365.09;105258;1270;72225;-77
2022/01/27 06:57:51;;;;;;;25.70;16.80;;;;;;;0.56;100.00;99368.20;105066;1271;62350;-79
2022/01/27 07:00:19;;;;;;;22.50;16.80;;;;;;;0.56;100.00;99374.81;105250;1270;62052;-79
2022/01/27 07:02:46;;;;;;;24.40;17.10;;;;;;;0.58;100.00;99378.12;105282;1271;75313;-78
2022/01/27 07:05:15;;;;;;;23.20;17.00;;;;;;;0.58;100.00;99388.41;105237;1271;70267;-78
2022/01/27 07:07:48;;;;;;;22.90;16.40;;;;;;;0.59;100.00;99381.93;105044;1271;71408;-79
2022/01/27 07:10:15;;;;;;;22.10;16.00;;;;;;;0.60;100.00;99380.00;104726;1271;62176;-79
2022/01/27 07:12:45;;;;;;;21.80;15.70;;;;;;;0.61;100.00;99376.48;105308;1271;62174;-78
2022/01/27 07:15:17;;;;;;;22.30;16.50;;;;;;;0.62;100.00;99368.91;105247;1271;75499;-78
2022/01/27 07:17:47;;;;;;;20.10;15.10;;;;;;;0.64;100.00;99367.67;105247;1271;69231;-78
2022/01/27 07:20:17;;;;;;;20.70;15.90;;;;;;;0.67;100.00;99370.23;105024;1271;73768;-80
2022/01/27 07:22:56;;;;;;;24.10;16.20;;;;;;;0.71;100.00;99370.51;104982;1271;62142;-80
2022/01/27 07:25:24;;;;;;;23.50;15.70;;;;;;;0.73;100.00;99370.11;105062;1271;62180;-80
2022/01/27 07:28:06;;;;;;;25.30;16.30;;;;;;;0.76;100.00;99365.30;105233;1271;74750;-77
2022/01/27 07:30:39;;;;;;;22.50;15.10;;;;;;;0.81;100.00;99355.23;104806;1271;70334;-77
2022/01/27 07:33:17;;;;;;;22.70;15.80;;;;;;;0.88;100.00;99350.37;105271;1271;73258;-81
2022/01/27 07:35:56;;;;;;;21.90;15.40;;;;;;;0.99;100.00;99345.58;105022;1271;62168;-79
2022/01/27 07:38:36;;;;;;;22.90;16.60;;;;;;;1.06;100.00;99345.23;105066;1271;62037;-79
2022/01/27 07:41:08;;;;;;;22.30;14.90;;;;;;;1.13;100.00;99345.96;105220;1271;76314;-77
2022/01/27 07:43:49;;;;;;;19.90;14.20;;;;;;;1.19;100.00;99350.55;105054;1271;69414;-78
2022/01/27 07:46:25;;;;;;;23.10;16.90;;;;;;;1.26;100.00;99342.48;104941;1271;72823;-78
2022/01/27 07:49:06;;;;;;;25.10;17.40;;;;;;;1.32;100.00;99341.67;105417;1270;62105;-78
2022/01/27 07:51:50;;;;;;;22.20;15.90;;;;;;;1.36;100.00;99342.27;104715;1271;62294;-80
2022/01/27 07:54:24;;;;;;;24.50;16.60;;;;;;;1.38;100.00;99338.56;105043;1270;76552;-78
2022/01/27 07:56:51;;;;;;;21.50;16.80;;;;;;;1.38;100.00;99331.73;104836;1271;70461;-78
2022/01/27 07:59:22;;;;;;;28.10;18.70;;;;;;;1.39;100.00;99315.95;105349;1271;71845;-80
2022/01/27 08:02:01;;;;;;;22.10;16.70;;;;;;;1.39;100.00;99316.82;105023;1271;62237;-80
2022/01/27 08:04:36;;;;;;;24.80;17.40;;;;;;;1.40;100.00;99323.28;105404;1271;62057;-82
2022/01/27 08:07:10;;;;;;;22.80;16.10;;;;;;;1.41;100.00;99324.11;105067;1271;73318;-79
2022/01/27 08:09:37;;;;;;;21.50;14.80;;;;;;;1.43;100.00;99317.26;104890;1271;68726;-78
2022/01/27 08:12:23;;;;;;;22.80;15.50;;;;;;;1.46;100.00;99314.71;104840;1277;71719;-78
2022/01/27 08:15:01;;;;;;;;;;;;;;;1.54;100.00;99313.30;104862;1277;62229;-78
2022/01/27 08:17:32;;;;;;;25.70;16.00;;;;;;;1.61;100.00;99309.77;104317;1277;62279;-79
2022/01/27 08:20:50;;;;;;;23.30;15.50;;;;;;;1.69;100.00;99304.13;104604;1277;74159;-79
2022/01/27 08:23:26;;;;;;;24.00;16.20;;;;;;;1.86;100.00;99286.89;104214;1279;69482;-79
2022/01/27 08:26:49;;;;;;;21.00;15.40;;;;;;;2.08;100.00;99277.52;104532;1279;71426;-78
2022/01/27 08:29:28;;;;;;;;;;;;;;;2.24;100.00;99268.29;103803;1285;62388;-79
2022/01/27 08:35:19;;;;;;;20.60;14.40;;;;;;;2.42;100.00;99270.05;103333;1286;74472;-78
2022/01/27 08:41:22;;;;;;;19.90;14.10;;;;;;;2.44;100.00;99287.72;103071;1294;73385;-78
2022/01/27 08:43:56;;;;;;;20.20;14.10;;;;;;;2.42;100.00;99302.34;103245;1289;62211;-78
2022/01/27 08:46:36;;;;;;;20.50;14.20;;;;;;;2.37;100.00;99301.06;103264;1288;62208;-78
2022/01/27 08:49:06;;;;;;;21.90;15.30;;;;;;;2.31;100.00;99302.84;103399;1287;74158;-78
2022/01/27 08:51:38;;;;;;;20.40;14.30;;;;;;;2.28;100.00;99303.59;103409;1287;70648;-77
2022/01/27 08:54:11;;;;;;;22.00;14.60;;;;;;;2.29;100.00;99298.14;103570;1285;73498;-79
2022/01/27 08:56:37;;;;;;;20.90;14.80;;;;;;;2.32;100.00;99295.61;104018;1285;62206;-80
2022/01/27 08:59:05;;;;;;;20.90;14.50;;;;;;;2.40;100.00;99293.27;104037;1285;62134;-78
2022/01/27 09:01:32;;;;;;;19.60;13.70;;;;;;;2.50;100.00;99285.27;104132;1285;75713;-78
2022/01/27 09:03:59;;;;;;;20.20;13.90;;;;;;;2.67;100.00;99285.45;104091;1285;69343;-79
2022/01/27 09:06:28;;;;;;;18.00;12.90;;;;;;;2.90;100.00;99289.14;104248;1277;73207;-79
2022/01/27 09:08:57;;;;;;;26.90;18.30;;;;;;;3.07;100.00;99289.65;105025;1277;61477;-80
2022/01/27 09:11:24;;;;;;;31.70;22.50;;;;;;;3.05;100.00;99295.66;105042;1277;61978;-78
2022/01/27 09:13:53;;;;;;;24.40;19.40;;;;;;;2.98;100.00;99305.21;105086;1277;77086;-79
2022/01/27 09:16:22;;;;;;;27.90;20.10;;;;;;;2.92;100.00;99308.23;105213;1278;69286;-79
2022/01/27 09:18:49;;;;;;;52.80;35.10;;;;;;;2.87;100.00;99300.45;105746;1271;73199;-78
2022/01/27 09:21:22;;;;;;;65.90;43.40;;;;;;;2.85;100.00;99295.42;105940;1271;61957;-79
2022/01/27 09:23:51;;;;;;;50.80;35.30;;;;;;;2.89;100.00;99288.14;106427;1271;62001;-79
2022/01/27 09:29:03;;;;;;;22.00;15.60;;;;;;;2.84;100.00;99275.81;107907;1271;69185;-79
2022/01/27 09:31:30;;;;;;;20.80;14.90;;;;;;;2.80;100.00;99270.48;107367;1271;73350;-79
2022/01/27 09:33:56;;;;;;;22.10;14.90;;;;;;;2.72;100.00;99285.47;106781;1270;62077;-80
2022/01/27 09:36:23;;;;;;;22.20;14.60;;;;;;;2.64;100.00;99286.42;105323;1271;62129;-79
2022/01/27 09:38:49;;;;;;;20.10;13.50;;;;;;;2.63;100.00;99273.65;104979;1271;76838;-80
2022/01/27 09:41:19;;;;;;;24.30;15.10;;;;;;;2.61;100.00;99267.73;105262;1271;62082;-80
2022/01/27 09:43:53;;;;;;;23.90;16.70;;;;;;;2.65;100.00;99264.45;105375;1271;74199;-82
2022/01/27 09:46:22;;;;;;;24.90;15.50;;;;;;;2.68;100.00;99253.70;105264;1271;62188;-80
2022/01/27 09:48:50;;;;;;;22.30;14.30;;;;;;;2.70;100.00;99245.54;104988;1271;62183;-78
2022/01/27 09:53:48;;;;;;;;;;;;;;;2.70;99.95;99232.75;105303;1271;70467;-77
2022/01/27 09:56:15;;;;;;;21.70;13.20;;;;;;;2.62;99.43;99242.11;105242;1270;74380;-80
2022/01/27 09:58:41;;;;;;;22.90;14.10;;;;;;;2.53;99.79;99235.56;105230;1271;62063;-77
2022/01/27 10:01:08;;;;;;;18.80;11.80;;;;;;;2.51;99.28;99219.13;104958;1271;62156;-78
2022/01/27 10:03:56;;;;;;;16.10;9.80;;;;;;;2.46;98.38;99218.92;105216;1269;76107;-80
2022/01/27 10:06:28;;;;;;;15.90;11.30;;;;;;;2.39;98.34;99213.35;105131;1270;69803;-81
2022/01/27 10:09:11;;;;;;;16.10;10.30;;;;;;;2.37;98.85;99208.48;105385;1271;72169;-78
2022/01/27 10:11:38;;;;;;;20.70;12.80;;;;;;;2.39;98.81;99194.75;105336;1271;62180;-77
2022/01/27 10:14:33;;;;;;;25.50;14.30;;;;;;;2.42;99.38;99183.43;105229;1271;62178;-80
2022/01/27 10:17:02;;;;;;;21.20;12.80;;;;;;;2.45;98.84;99174.58;105211;1271;75886;-80
2022/01/27 10:19:30;;;;;;;18.90;12.10;;;;;;;2.45;98.40;99167.04;105358;1271;69441;-80
2022/01/27 10:22:01;;;;;;;22.30;13.80;;;;;;;2.40;97.68;99154.73;105254;1271;73161;-79
2022/01/27 10:24:33;;;;;;;18.90;11.60;;;;;;;2.34;97.70;99155.13;105223;1271;62191;-80
2022/01/27 10:27:45;;;;;;;20.40;12.00;;;;;;;2.29;98.05;99162.63;105028;1272;62084;-79
2022/01/27 10:32:53;;;;;;;14.20;9.70;;;;;;;2.35;98.76;99150.67;105254;1271;69229;-80
2022/01/27 10:35:23;;;;;;;16.10;10.10;;;;;;;2.35;97.94;99145.80;105249;1271;73171;-79
2022/01/27 10:38:03;;;;;;;23.30;13.90;;;;;;;2.33;98.33;99132.70;105076;1271;62080;-80
2022/01/27 10:40:35;;;;;;;14.50;8.80;;;;;;;2.35;98.73;99130.36;105239;1271;62051;-79
2022/01/27 10:43:09;;;;;;;14.20;9.50;;;;;;;2.36;96.66;99112.97;105219;1270;76793;-80
2022/01/27 10:45:41;;;;;;;14.80;9.50;;;;;;;2.42;96.43;99113.81;105206;1271;69224;-80
2022/01/27 10:48:24;;;;;;;17.80;10.80;;;;;;;2.45;96.74;99119.53;104957;1271;73210;-80
2022/01/27 10:51:09;;;;;;;16.00;9.50;;;;;;;2.52;97.18;99120.36;105244;1271;62063;-77
2022/01/27 10:53:59;;;;;;;15.10;8.90;;;;;;;2.66;96.64;99122.18;105259;1271;62066;-79
2022/01/27 10:56:31;;;;;;;14.20;9.20;;;;;;;2.70;95.95;99123.60;105337;1269;76511;-80
2022/01/27 10:59:00;;;;;;;13.80;8.80;;;;;;;2.72;95.87;99113.73;105220;1271;70544;-79
2022/01/27 11:01:38;;;;;;;12.70;8.60;;;;;;;2.80;95.84;99111.19;105367;1269;74062;-79
2022/01/27 11:04:07;;;;;;;13.20;8.30;;;;;;;2.86;95.74;99107.65;105237;1271;62174;-80
2022/01/27 11:06:35;;;;;;;12.90;7.80;;;;;;;2.84;95.04;99105.61;105419;1271;62040;-78
2022/01/27 11:09:08;;;;;;;12.10;7.90;;;;;;;2.81;93.86;99102.20;104990;1271;75703;-79
2022/01/27 11:11:39;;;;;;;11.60;7.60;;;;;;;2.77;94.66;99093.23;105360;1271;70190;-79
2022/01/27 11:14:06;;;;;;;12.90;7.50;;;;;;;2.74;93.47;99100.84;105325;1271;74239;-79
2022/01/27 11:16:39;;;;;;;12.70;8.30;;;;;;;2.72;93.80;99095.32;105234;1271;62883;-78
2022/01/27 11:19:19;;;;;;;10.50;8.20;;;;;;;2.63;93.42;99097.17;105204;1271;62084;-78
2022/01/27 11:21:50;;;;;;;11.50;7.00;;;;;;;2.60;94.38;99086.05;105251;1271;74954;-80
2022/01/27 11:24:30;;;;;;;12.40;8.40;;;;;;;2.61;93.88;99088.33;105258;1271;69158;-78
2022/01/27 11:27:00;;;;;;;11.40;8.00;;;;;;;2.57;94.14;99075.29;105319;1271;73176;-78
2022/01/27 11:29:30;;;;;;;15.30;9.50;;;;;;;2.55;94.68;99069.23;105293;1270;62170;-78
2022/01/27 11:32:16;;;;;;;13.50;8.50;;;;;;;2.58;94.34;99068.58;105269;1270;62187;-79
2022/01/27 11:34:52;;;;;;;14.10;8.50;;;;;;;2.57;94.21;99061.95;105080;1272;77269;-79
2022/01/27 11:40:58;;;;;;;14.30;9.30;;;;;;;2.64;94.92;99050.66;105270;1270;74349;-79
2022/01/27 11:43:34;;;;;;;13.20;9.20;;;;;;;2.69;95.21;99055.77;105229;1271;62151;-78
2022/01/27 11:46:16;;;;;;;18.40;10.80;;;;;;;2.73;94.81;99055.10;105270;1271;62190;-77
2022/01/27 11:48:43;;;;;;;15.50;9.40;;;;;;;2.73;94.71;99041.05;105014;1272;74146;-78
2022/01/27 11:51:13;;;;;;;11.70;9.20;;;;;;;2.76;94.42;99031.69;105259;1271;70903;-79
2022/01/27 11:53:49;;;;;;;13.00;8.90;;;;;;;2.73;94.65;99029.48;105319;1271;73270;-77
2022/01/27 11:56:27;;;;;;;14.10;9.40;;;;;;;2.75;94.80;99036.61;105202;1271;62114;-80
2022/01/27 11:58:56;;;;;;;13.30;9.50;;;;;;;2.75;94.60;99033.10;105248;1270;62191;-77
2022/01/27 12:01:34;;;;;;;15.00;9.90;;;;;;;2.70;94.62;99034.31;105053;1271;76354;-80
2022/01/27 12:04:11;;;;;;;12.80;9.80;;;;;;;2.68;94.60;99031.26;105195;1272;69151;-78
2022/01/27 12:06:47;;;;;;;15.90;10.30;;;;;;;2.66;94.99;99027.11;105257;1271;73259;-81
2022/01/27 12:09:17;;;;;;;14.40;10.70;;;;;;;2.64;94.96;99026.11;105259;1271;62200;-80
2022/01/27 12:12:03;;;;;;;14.30;10.70;;;;;;;2.63;95.03;99018.09;105229;1271;61976;-80
2022/01/27 12:14:33;;;;;;;15.70;10.40;;;;;;;2.58;94.78;99020.52;105240;1271;76122;-77
2022/01/27 12:17:08;;;;;;;17.10;11.70;;;;;;;2.52;94.77;99021.09;105253;1271;68288;-78
2022/01/27 12:19:54;;;;;;;17.70;11.90;;;;;;;2.44;95.17;99016.26;105201;1271;74480;-77
2022/01/27 12:22:26;;;;;;;17.10;11.80;;;;;;;2.43;95.32;98995.10;105175;1271;62091;-79
2022/01/27 12:24:56;;;;;;;18.10;12.50;;;;;;;2.45;95.31;98990.82;105238;1271;62062;-78
2022/01/27 12:27:23;;;;;;;;;;;;;;;2.43;95.06;98990.73;105276;1271;77004;-79
2022/01/27 12:29:53;;;;;;;17.20;11.90;;;;;;;2.36;95.03;98977.60;105209;1271;69254;-80
2022/01/27 12:32:21;;;;;;;15.20;11.30;;;;;;;2.35;95.41;98967.31;105237;1271;74103;-78
2022/01/27 12:34:55;;;;;;;17.70;11.70;;;;;;;2.32;95.40;98959.33;105230;1271;62092;-78
2022/01/27 12:37:25;;;;;;;18.30;12.80;;;;;;;2.30;95.46;98955.92;105223;1271;62169;-77
2022/01/27 12:39:57;;;;;;;16.50;11.90;;;;;;;2.32;95.82;98951.83;104765;1271;77512;-77
2022/01/27 12:42:36;;;;;;;20.40;12.30;;;;;;;2.36;96.11;98947.48;105207;1271;70277;-79
2022/01/27 12:45:11;;;;;;;17.40;12.40;;;;;;;2.38;95.71;98940.55;105201;1271;74482;-77
2022/01/27 12:47:40;;;;;;;19.30;13.60;;;;;;;2.37;95.73;98931.99;105240;1270;62090;-78
2022/01/27 12:50:11;;;;;;;19.00;13.20;;;;;;;2.34;95.68;98931.24;105270;1271;61970;-80
2022/01/27 12:52:43;;;;;;;18.40;13.00;;;;;;;2.29;96.21;98923.00;105310;1271;77501;-80
2022/01/27 12:55:22;;;;;;;21.00;14.70;;;;;;;2.23;95.85;98934.58;105185;1271;69349;-79
2022/01/27 12:57:57;;;;;;;18.80;12.40;;;;;;;2.16;96.39;98922.55;105190;1271;74164;-79
2022/01/27 13:00:24;;;;;;;20.70;14.20;;;;;;;2.11;96.62;98918.88;105326;1271;62089;-78
2022/01/27 13:02:58;;;;;;;18.80;13.10;;;;;;;2.05;96.78;98912.06;105196;1270;62103;-79
2022/01/27 13:05:53;;;;;;;20.40;13.50;;;;;;;2.02;96.95;98903.74;105232;1271;75523;-80
2022/01/27 13:08:25;;;;;;;23.30;14.40;;;;;;;2.00;97.14;98898.56;105201;1271;70529;-79
2022/01/27 13:10:56;;;;;;;21.10;14.70;;;;;;;1.98;97.23;98894.93;99007;1271;8673549;-79
2022/01/27 13:13:28;;;;;;;19.40;13.20;;;;;;;1.96;97.26;98895.36;105196;1271;61950;-81
2022/01/27 13:15:59;;;;;;;24.00;15.10;;;;;;;1.91;97.43;98899.20;105186;1271;75999;-77
2022/01/27 13:18:47;;;;;;;23.70;15.20;;;;;;;1.88;97.62;98893.69;105229;1271;68836;-77
2022/01/27 13:21:24;;;;;;;25.30;16.50;;;;;;;1.84;97.98;98894.88;105235;1271;73333;-78
2022/01/27 13:24:06;;;;;;;24.60;15.90;;;;;;;1.83;98.20;98895.95;105098;1271;62100;-78